createdAt,value
2023-04-03T00:01:20.921Z,73.50
2023-04-03T00:03:48.816Z,73.36
2023-04-03T00:06:16.851Z,73.21
2023-04-03T00:08:45.018Z,73.00
2023-04-03T00:11:12.833Z,72.81
2023-04-03T00:13:41.048Z,72.63
2023-04-03T00:16:10.260Z,72.29
2023-04-03T00:18:39.119Z,71.64
2023-04-03T00:21:07.738Z,71.33
2023-04-03T00:23:36.195Z,71.38
2023-04-03T00:26:04.224Z,70.89
2023-04-03T00:28:31.916Z,71.14
2023-04-03T00:30:59.708Z,71.26
2023-04-03T00:33:27.664Z,71.47
2023-04-03T00:35:56.106Z,71.58
2023-04-03T00:38:23.834Z,71.63
2023-04-03T00:40:51.586Z,71.44
2023-04-03T00:43:25.241Z,71.36
2023-04-03T00:45:56.220Z,71.60
2023-04-03T00:48:32.150Z,71.74
2023-04-03T00:51:01.400Z,71.82
2023-04-03T00:53:55.566Z,71.82
2023-04-03T00:56:27.953Z,71.67
2023-04-03T00:59:12.874Z,71.47
2023-04-03T01:01:41.079Z,71.50
2023-04-03T01:04:30.952Z,71.59
2023-04-03T01:07:06.798Z,71.67
2023-04-03T01:09:35.046Z,71.68
2023-04-03T01:12:21.691Z,71.62
2023-04-03T01:14:52.643Z,71.44
2023-04-03T01:17:31.967Z,71.37
2023-04-03T01:20:12.018Z,71.37
2023-04-03T01:22:55.480Z,71.36
2023-04-03T01:25:23.713Z,71.33
2023-04-03T01:27:51.859Z,71.24
2023-04-03T01:30:23.974Z,71.14
2023-04-03T01:32:51.694Z,71.24
2023-04-03T01:35:19.917Z,71.30
2023-04-03T01:37:47.642Z,71.27
2023-04-03T01:40:15.464Z,71.26
2023-04-03T01:42:43.287Z,71.33
2023-04-03T01:45:11.148Z,71.21
2023-04-03T01:47:38.953Z,71.13
2023-04-03T01:50:07.417Z,71.12
2023-04-03T01:52:35.685Z,71.09
2023-04-03T01:55:03.609Z,71.06
2023-04-03T01:57:32.293Z,70.95
2023-04-03T01:59:59.987Z,71.01
2023-04-03T02:02:27.837Z,70.86
2023-04-03T02:04:55.973Z,70.84
2023-04-03T02:07:23.696Z,70.83
2023-04-03T02:09:51.436Z,70.80
2023-04-03T02:12:19.861Z,70.84
2023-04-03T02:14:47.902Z,70.87
2023-04-03T02:17:16.029Z,70.95
2023-04-03T02:19:43.791Z,71.02
2023-04-03T02:22:11.534Z,71.05
2023-04-03T02:24:41.353Z,71.07
2023-04-03T02:27:09.043Z,71.23
2023-04-03T02:29:36.868Z,71.29
2023-04-03T02:32:06.337Z,70.94
2023-04-03T02:34:34.461Z,70.87
2023-04-03T02:37:02.392Z,70.96
2023-04-03T02:39:30.448Z,71.05
2023-04-03T02:41:58.965Z,71.20
2023-04-03T02:44:26.957Z,71.29
2023-04-03T02:46:54.741Z,71.42
2023-04-03T02:49:22.592Z,71.40
2023-04-03T02:51:50.274Z,71.37
2023-04-03T02:54:17.986Z,71.37
2023-04-03T02:56:49.043Z,71.43
2023-04-03T02:59:17.037Z,71.46
2023-04-03T03:01:46.624Z,71.51
2023-04-03T03:04:14.754Z,71.59
2023-04-03T03:06:44.748Z,71.55
2023-04-03T03:09:14.051Z,71.43
2023-04-03T03:11:44.176Z,71.33
2023-04-03T03:14:11.988Z,71.27
2023-04-03T03:16:39.717Z,71.29
2023-04-03T03:19:07.811Z,71.31
2023-04-03T03:21:36.073Z,71.16
2023-04-03T03:24:04.158Z,71.20
2023-04-03T03:26:31.963Z,71.15
2023-04-03T03:28:59.700Z,71.23
2023-04-03T03:31:28.169Z,71.17
2023-04-03T03:33:56.073Z,71.13
2023-04-03T03:36:24.077Z,71.16
2023-04-03T03:38:51.960Z,71.19
2023-04-03T03:41:19.964Z,71.22
2023-04-03T03:43:48.564Z,71.27
2023-04-03T03:46:16.833Z,71.31
2023-04-03T03:48:45.445Z,71.27
2023-04-03T03:51:13.339Z,71.23
2023-04-03T03:53:41.270Z,71.29
2023-04-03T03:56:11.631Z,71.38
2023-04-03T03:58:40.267Z,71.42
2023-04-03T04:01:08.579Z,71.44
2023-04-03T04:03:41.410Z,71.50
2023-04-03T04:06:10.549Z,71.50
2023-04-03T04:08:38.710Z,71.54
2023-04-03T04:11:08.334Z,71.48
2023-04-03T04:13:36.365Z,71.55
2023-04-03T04:16:05.539Z,71.63
2023-04-03T04:18:34.398Z,71.66
2023-04-03T04:21:02.422Z,71.64
2023-04-03T04:23:30.492Z,71.64
2023-04-03T04:25:59.423Z,71.67
2023-04-03T04:28:27.970Z,71.79
2023-04-03T04:30:56.359Z,71.84
2023-04-03T04:33:24.431Z,71.91
2023-04-03T04:35:52.957Z,71.97
2023-04-03T04:38:21.573Z,72.02
2023-04-03T04:40:50.087Z,72.00
2023-04-03T04:43:18.200Z,72.07
2023-04-03T04:45:47.187Z,72.07
2023-04-03T04:48:15.593Z,72.10
2023-04-03T04:50:43.394Z,72.15
2023-04-03T04:53:11.320Z,72.19
2023-04-03T04:55:39.224Z,72.20
2023-04-03T04:58:07.614Z,72.23
2023-04-03T05:00:36.783Z,72.29
2023-04-03T05:03:04.807Z,72.28
2023-04-03T05:05:35.309Z,72.23
2023-04-03T05:08:05.036Z,72.19
2023-04-03T05:10:33.389Z,72.16
2023-04-03T05:13:01.137Z,72.12
2023-04-03T05:15:28.996Z,72.12
2023-04-03T05:17:57.051Z,72.08
2023-04-03T05:20:24.959Z,71.95
2023-04-03T05:22:53.475Z,71.83
2023-04-03T05:25:21.561Z,71.69
2023-04-03T05:27:49.542Z,71.59
2023-04-03T05:30:18.342Z,71.24
2023-04-03T05:32:46.451Z,71.29
2023-04-03T05:35:20.663Z,71.27
2023-04-03T05:37:50.006Z,71.02
2023-04-03T05:40:19.656Z,70.73
2023-04-03T05:42:49.170Z,70.59
2023-04-03T05:45:17.759Z,70.43
2023-04-03T05:47:45.802Z,70.31
2023-04-03T05:50:13.970Z,70.51
2023-04-03T05:52:46.654Z,70.52
2023-04-03T05:55:14.904Z,70.29
2023-04-03T05:57:42.730Z,70.30
2023-04-03T06:00:15.437Z,70.17
2023-04-03T06:02:44.336Z,69.86
2023-04-03T06:05:17.171Z,69.78
2023-04-03T06:07:45.719Z,69.49
2023-04-03T06:10:14.670Z,69.03
2023-04-03T06:12:42.765Z,69.32
2023-04-03T06:15:11.387Z,69.26
2023-04-03T06:17:40.565Z,69.08
2023-04-03T06:20:10.530Z,68.45
2023-04-03T06:22:39.263Z,68.04
2023-04-03T06:25:07.492Z,68.06
2023-04-03T06:27:35.456Z,67.92
2023-04-03T06:30:03.394Z,67.65
2023-04-03T06:32:31.318Z,66.86
2023-04-03T06:34:59.412Z,66.50
2023-04-03T06:37:27.272Z,65.86
2023-04-03T06:39:55.588Z,65.70
2023-04-03T06:42:24.360Z,65.76
2023-04-03T06:45:01.398Z,65.98
2023-04-03T06:47:29.289Z,66.17
2023-04-03T06:49:57.423Z,66.28
2023-04-03T06:52:25.264Z,65.73
2023-04-03T06:54:58.013Z,65.42
2023-04-03T06:57:26.210Z,65.61
2023-04-03T06:59:53.982Z,65.44
2023-04-03T07:02:22.041Z,64.99
2023-04-03T07:04:49.902Z,65.20
2023-04-03T07:07:18.856Z,65.28
2023-04-03T07:09:49.003Z,65.26
2023-04-03T07:12:17.148Z,64.71
2023-04-03T07:14:45.005Z,64.80
2023-04-03T07:17:12.700Z,64.87
2023-04-03T07:19:40.387Z,64.39
2023-04-03T07:22:08.731Z,63.34
2023-04-03T07:24:36.960Z,62.76
2023-04-03T07:27:04.710Z,62.41
2023-04-03T07:29:32.906Z,62.26
2023-04-03T07:32:00.933Z,62.30
2023-04-03T07:34:28.912Z,61.90
2023-04-03T07:36:57.677Z,61.81
2023-04-03T07:39:25.918Z,61.47
2023-04-03T07:41:53.741Z,61.47
2023-04-03T07:44:21.691Z,61.82
2023-04-03T07:46:49.536Z,61.77
2023-04-03T07:49:19.183Z,61.54
2023-04-03T07:51:47.639Z,61.21
2023-04-03T07:54:16.178Z,60.72
2023-04-03T07:56:44.008Z,60.70
2023-04-03T07:59:12.503Z,59.66
2023-04-03T08:01:40.249Z,59.58
2023-04-03T08:04:08.156Z,59.58
2023-04-03T08:06:45.528Z,59.57
2023-04-03T08:09:18.163Z,60.27
2023-04-03T08:11:46.836Z,58.62
2023-04-03T08:14:17.934Z,57.60
2023-04-03T08:16:47.073Z,58.26
2023-04-03T08:19:25.507Z,58.60
2023-04-03T08:21:57.936Z,58.87
2023-04-03T08:24:26.289Z,58.58
2023-04-03T08:26:53.980Z,58.49
2023-04-03T08:29:22.364Z,58.72
2023-04-03T08:31:51.284Z,57.70
2023-04-03T08:34:20.417Z,57.96
2023-04-03T08:36:48.376Z,57.50
2023-04-03T08:39:16.137Z,56.53
2023-04-03T08:41:47.343Z,55.01
2023-04-03T08:44:48.083Z,54.68
2023-04-03T08:47:29.117Z,53.00
2023-04-03T08:50:00.461Z,51.79
2023-04-03T08:52:46.349Z,50.69
2023-04-03T08:55:28.108Z,50.75
2023-04-03T08:58:04.432Z,51.22
2023-04-03T09:00:51.704Z,51.05
2023-04-03T09:03:21.802Z,50.26
2023-04-03T09:05:54.593Z,47.73
2023-04-03T09:08:24.104Z,46.98
2023-04-03T09:11:16.874Z,48.08
2023-04-03T09:13:49.746Z,49.31
2023-04-03T09:16:32.625Z,49.01
2023-04-03T09:19:21.349Z,48.80
2023-04-03T09:21:49.251Z,48.75
2023-04-03T09:24:18.585Z,47.76
2023-04-03T09:26:49.658Z,45.20
2023-04-03T09:29:20.578Z,44.71
2023-04-03T09:31:51.953Z,43.74
2023-04-03T09:34:32.510Z,43.39
2023-04-03T09:37:07.114Z,45.08
2023-04-03T09:39:55.453Z,46.10
2023-04-03T09:42:25.764Z,45.46
2023-04-03T09:45:05.922Z,44.75
2023-04-03T09:47:37.238Z,45.40
2023-04-03T09:50:25.396Z,45.27
2023-04-03T09:52:53.208Z,41.44
2023-04-03T09:55:28.116Z,40.64
2023-04-03T09:58:04.709Z,41.94
2023-04-03T10:00:37.194Z,42.66
2023-04-03T10:03:06.748Z,42.75
2023-04-03T10:05:36.462Z,41.23
2023-04-03T10:08:16.299Z,41.79
2023-04-03T10:10:49.488Z,42.32
2023-04-03T10:13:25.597Z,41.82
2023-04-03T10:16:15.966Z,41.62
2023-04-03T10:18:50.908Z,39.94
2023-04-03T10:21:41.435Z,37.44
2023-04-03T10:24:12.167Z,37.77
2023-04-03T10:26:52.258Z,38.87
2023-04-03T10:30:08.400Z,38.72
2023-04-03T10:32:55.007Z,40.38
2023-04-03T10:35:22.683Z,41.29
2023-04-03T10:38:09.614Z,42.54
2023-04-03T10:40:51.871Z,42.94
2023-04-03T10:43:34.293Z,42.84
2023-04-03T10:46:16.803Z,42.71
2023-04-03T10:49:03.570Z,42.92
2023-04-03T10:51:49.020Z,42.34
2023-04-03T10:54:30.544Z,40.01
2023-04-03T10:57:11.960Z,39.98
2023-04-03T11:00:00.957Z,37.81
2023-04-03T11:02:43.188Z,38.29
2023-04-03T11:05:29.358Z,38.32
2023-04-03T11:08:00.861Z,36.63
2023-04-03T11:10:37.921Z,36.07
2023-04-03T11:13:29.177Z,35.87
2023-04-03T11:15:58.867Z,36.22
2023-04-03T11:18:46.044Z,36.54
2023-04-03T11:21:35.790Z,36.93
2023-04-03T11:24:14.687Z,37.30
2023-04-03T11:26:43.373Z,38.32
2023-04-03T11:29:34.120Z,38.67
2023-04-03T11:32:24.518Z,39.46
2023-04-03T11:34:57.638Z,39.82
2023-04-03T11:37:47.268Z,39.48
2023-04-03T11:40:21.071Z,38.98
2023-04-03T11:43:01.411Z,38.27
2023-04-03T11:45:52.146Z,37.88
2023-04-03T11:48:24.848Z,37.73
2023-04-03T11:50:53.304Z,37.50
2023-04-03T11:53:35.542Z,37.38
2023-04-03T11:56:03.423Z,37.37
2023-04-03T11:58:35.926Z,37.74
2023-04-03T12:01:05.630Z,38.48
2023-04-03T12:03:34.860Z,38.94
2023-04-03T12:06:06.414Z,39.71
2023-04-03T12:08:34.234Z,39.45
2023-04-03T12:11:10.915Z,39.38
2023-04-03T12:13:58.533Z,38.76
2023-04-03T12:16:38.363Z,38.62
2023-04-03T12:19:15.687Z,38.78
2023-04-03T12:21:49.680Z,38.94
2023-04-03T12:24:17.595Z,39.05
2023-04-03T12:26:58.154Z,39.04
2023-04-03T12:29:41.398Z,38.90
2023-04-03T12:32:42.754Z,39.32
2023-04-03T12:35:30.779Z,40.13
2023-04-03T12:38:11.652Z,40.97
2023-04-03T12:40:56.261Z,40.75
2023-04-03T12:43:52.644Z,40.45
2023-04-03T12:46:23.988Z,40.64
2023-04-03T12:48:56.454Z,40.83
2023-04-03T12:51:30.323Z,40.71
2023-04-03T12:54:03.656Z,40.44
2023-04-03T12:56:35.233Z,40.36
2023-04-03T12:59:26.175Z,39.72
2023-04-03T13:02:03.987Z,39.57
2023-04-03T13:04:33.349Z,39.54
2023-04-03T13:07:01.371Z,39.16
2023-04-03T13:09:31.807Z,38.91
2023-04-03T13:12:04.606Z,39.17
2023-04-03T13:14:34.482Z,38.67
2023-04-03T13:17:15.939Z,38.71
2023-04-03T13:19:47.050Z,38.01
2023-04-03T13:22:33.847Z,37.66
2023-04-03T13:25:07.723Z,36.86
2023-04-03T13:27:36.189Z,37.32
2023-04-03T13:30:05.114Z,37.04
2023-04-03T13:32:33.919Z,37.39
2023-04-03T13:35:15.461Z,38.48
2023-04-03T13:37:56.455Z,37.42
2023-04-03T13:40:27.958Z,37.55
2023-04-03T13:43:03.420Z,37.38
2023-04-03T13:45:33.467Z,37.05
2023-04-03T13:48:23.640Z,37.91
2023-04-03T13:50:55.425Z,38.75
2023-04-03T13:53:23.981Z,38.78
2023-04-03T13:56:05.486Z,39.22
2023-04-03T13:58:34.572Z,39.37
2023-04-03T14:01:54.194Z,39.76
2023-04-03T14:04:28.810Z,40.43
2023-04-03T14:06:57.464Z,40.45
2023-04-03T14:09:28.022Z,40.62
2023-04-03T14:12:01.441Z,40.27
2023-04-03T14:14:33.187Z,40.00
2023-04-03T14:17:03.872Z,40.14
2023-04-03T14:19:34.791Z,40.08
2023-04-03T14:22:17.870Z,40.44
2023-04-03T14:24:47.399Z,40.79
2023-04-03T14:27:21.879Z,40.23
2023-04-03T14:29:51.607Z,40.32
2023-04-03T14:32:24.601Z,40.30
2023-04-03T14:34:54.128Z,40.33
2023-04-03T14:37:25.674Z,40.50
2023-04-03T14:39:54.653Z,40.91
2023-04-03T14:42:31.901Z,41.04
2023-04-03T14:45:01.481Z,41.00
2023-04-03T14:47:32.208Z,40.87
2023-04-03T14:50:02.526Z,40.85
2023-04-03T14:52:36.820Z,41.11
2023-04-03T14:55:08.688Z,41.37
2023-04-03T14:57:36.887Z,41.54
2023-04-03T15:00:08.191Z,42.26
2023-04-03T15:02:38.433Z,42.38
2023-04-03T15:05:09.591Z,42.59
2023-04-03T15:07:41.149Z,42.68
2023-04-03T15:10:12.466Z,42.90
2023-04-03T15:12:40.403Z,42.94
2023-04-03T15:15:09.139Z,42.73
2023-04-03T15:17:37.587Z,42.59
2023-04-03T15:20:17.190Z,42.89
2023-04-03T15:22:45.071Z,42.87
2023-04-03T15:25:13.181Z,43.13
2023-04-03T15:27:44.035Z,43.31
2023-04-03T15:30:18.324Z,43.37
2023-04-03T15:32:46.524Z,43.73
2023-04-03T15:35:14.635Z,43.74
2023-04-03T15:37:42.865Z,43.78
2023-04-03T15:40:11.401Z,43.98
2023-04-03T15:42:40.002Z,44.22
2023-04-03T15:45:08.866Z,44.38
2023-04-03T15:47:36.867Z,44.41
2023-04-03T15:50:07.745Z,44.34
2023-04-03T15:52:35.729Z,44.16
2023-04-03T15:55:04.331Z,44.19
2023-04-03T16:00:05.395Z,44.17
2023-04-03T16:02:35.167Z,44.28
2023-04-03T16:05:03.610Z,44.41
2023-04-03T16:07:31.813Z,44.60
2023-04-03T16:09:59.749Z,45.03
2023-04-03T16:12:27.515Z,45.24
2023-04-03T16:14:55.379Z,45.57
2023-04-03T16:17:23.712Z,45.51
2023-04-03T16:19:51.617Z,45.69
2023-04-03T16:22:19.774Z,45.78
2023-04-03T16:24:47.515Z,45.90
2023-04-03T16:27:15.384Z,45.66
2023-04-03T16:29:43.435Z,45.79
2023-04-03T16:32:11.353Z,45.90
2023-04-03T16:34:41.624Z,45.80
2023-04-03T16:37:10.566Z,45.84
2023-04-03T16:39:38.463Z,46.05
2023-04-03T16:42:06.673Z,46.20
2023-04-03T16:44:34.420Z,46.30
2023-04-03T16:47:03.035Z,46.19
2023-04-03T16:49:33.939Z,46.43
2023-04-03T16:52:03.538Z,46.31
2023-04-03T16:54:32.777Z,46.32
2023-04-03T16:57:01.852Z,46.16
2023-04-03T16:59:29.859Z,46.23
2023-04-03T17:01:58.148Z,46.25
2023-04-03T17:04:27.195Z,46.34
2023-04-03T17:06:56.048Z,46.54
2023-04-03T17:09:24.122Z,46.68
2023-04-03T17:11:52.120Z,46.58
2023-04-03T17:14:19.910Z,46.63
2023-04-03T17:16:47.714Z,46.75
2023-04-03T17:19:17.368Z,47.00
2023-04-03T17:21:46.568Z,47.14
2023-04-03T17:24:15.489Z,47.35
2023-04-03T17:26:44.067Z,47.54
2023-04-03T17:29:12.243Z,47.81
2023-04-03T17:31:40.133Z,47.91
2023-04-03T17:34:12.706Z,47.89
2023-04-03T17:36:41.738Z,48.30
2023-04-03T17:39:10.114Z,48.56
2023-04-03T17:41:38.119Z,48.54
2023-04-03T17:44:07.023Z,48.72
2023-04-03T17:46:35.536Z,48.81
2023-04-03T17:49:05.335Z,49.00
2023-04-03T17:51:36.527Z,48.99
2023-04-03T17:54:04.264Z,48.89
2023-04-03T17:56:32.725Z,49.01
2023-04-03T17:59:00.794Z,49.00
2023-04-03T18:01:32.457Z,49.16
2023-04-03T18:04:03.366Z,49.23
2023-04-03T18:07:02.412Z,49.26
2023-04-03T18:09:33.345Z,49.49
2023-04-03T18:12:04.575Z,49.65
2023-04-03T18:14:35.260Z,49.82
2023-04-03T18:17:03.729Z,49.88
2023-04-03T18:19:32.238Z,50.20
2023-04-03T18:22:04.857Z,50.38
2023-04-03T18:24:35.484Z,50.53
2023-04-03T18:27:10.145Z,50.48
2023-04-03T18:29:40.932Z,50.44
2023-04-03T18:32:12.127Z,50.58
2023-04-03T18:34:40.382Z,50.47
2023-04-03T18:37:08.195Z,50.80
2023-04-03T18:39:36.194Z,50.72
2023-04-03T18:42:10.856Z,50.50
2023-04-03T18:44:41.065Z,50.57
2023-04-03T18:47:09.528Z,50.85
2023-04-03T18:49:40.298Z,50.90
2023-04-03T18:52:08.473Z,51.15
2023-04-03T18:54:37.402Z,51.28
2023-04-03T18:57:05.783Z,51.49
2023-04-03T18:59:34.001Z,51.41
2023-04-03T19:02:02.144Z,51.41
2023-04-03T19:04:31.243Z,51.55
2023-04-03T19:06:59.957Z,51.80
2023-04-03T19:09:28.267Z,51.88
2023-04-03T19:11:56.534Z,52.00
2023-04-03T19:14:24.593Z,52.07
2023-04-03T19:16:52.859Z,52.21
2023-04-03T19:19:20.835Z,52.70
2023-04-03T19:21:48.720Z,52.67
2023-04-03T19:24:16.852Z,52.92
2023-04-03T19:26:44.760Z,53.36
2023-04-03T19:29:12.888Z,53.52
2023-04-03T19:31:41.028Z,53.61
2023-04-03T19:34:09.048Z,53.92
2023-04-03T19:36:37.874Z,54.35
2023-04-03T19:39:06.098Z,55.04
2023-04-03T19:41:36.198Z,55.12
2023-04-03T19:44:07.189Z,55.23
2023-04-03T19:46:36.538Z,55.31
2023-04-03T19:49:05.096Z,55.46
2023-04-03T19:51:33.594Z,55.52
2023-04-03T19:54:01.435Z,55.72
2023-04-03T19:56:29.853Z,55.73
2023-04-03T19:58:57.955Z,55.75
2023-04-03T20:01:27.847Z,55.84
2023-04-03T20:03:55.725Z,55.99
2023-04-03T20:06:24.192Z,55.99
2023-04-03T20:08:52.180Z,56.11
2023-04-03T20:11:21.055Z,56.03
2023-04-03T20:13:53.113Z,56.11
2023-04-03T20:16:26.038Z,56.05
2023-04-03T20:18:57.026Z,56.13
2023-04-03T20:21:30.595Z,56.21
2023-04-03T20:23:59.742Z,56.40
2023-04-03T20:26:29.831Z,56.49
2023-04-03T20:29:00.329Z,56.66
2023-04-03T20:31:29.710Z,56.68
2023-04-03T20:33:57.532Z,56.72
2023-04-03T20:36:28.399Z,56.92
2023-04-03T20:38:56.321Z,57.02
2023-04-03T20:41:24.941Z,57.19
2023-04-03T20:43:53.715Z,57.14
2023-04-03T20:46:22.945Z,57.26
2023-04-03T20:48:50.708Z,57.36
2023-04-03T20:51:20.115Z,57.44
2023-04-03T20:53:48.385Z,57.66
2023-04-03T20:56:16.872Z,57.86
2023-04-03T20:58:46.160Z,57.82
2023-04-03T21:01:17.169Z,57.77
2023-04-03T21:03:46.378Z,57.81
2023-04-03T21:06:52.107Z,58.02
2023-04-03T21:09:57.510Z,58.14
2023-04-03T21:13:03.339Z,58.20
2023-04-03T21:15:49.713Z,58.20
2023-04-03T21:18:23.585Z,58.13
2023-04-03T21:20:51.385Z,58.19
2023-04-03T21:23:20.430Z,58.23
2023-04-03T21:28:26.829Z,58.50
2023-04-03T21:30:53.278Z,58.46
2023-04-03T21:33:19.767Z,58.42
2023-04-03T21:35:46.303Z,58.53
2023-04-03T21:38:14.691Z,58.75
2023-04-03T21:40:41.355Z,58.85
2023-04-03T21:43:08.067Z,58.86
2023-04-03T21:45:34.651Z,58.88
2023-04-03T21:48:03.245Z,59.02
2023-04-03T21:50:29.631Z,59.11
2023-04-03T21:52:56.904Z,59.36
2023-04-03T21:55:23.219Z,59.62
2023-04-03T21:57:51.807Z,59.64
2023-04-03T22:00:19.398Z,59.64
2023-04-03T22:02:46.355Z,60.08
2023-04-03T22:05:12.789Z,60.17
2023-04-03T22:07:39.184Z,60.52
2023-04-03T22:10:05.851Z,60.57
2023-04-03T22:12:32.160Z,60.82
2023-04-03T22:14:58.583Z,60.83
2023-04-03T22:17:25.335Z,60.81
2023-04-03T22:19:51.758Z,60.85
2023-04-03T22:22:18.182Z,60.94
2023-04-03T22:24:44.927Z,61.23
2023-04-03T22:27:12.342Z,61.34
2023-04-03T22:29:38.742Z,61.42
2023-04-03T22:32:05.324Z,61.53
2023-04-03T22:34:37.608Z,61.58
2023-04-03T22:37:03.966Z,61.70
2023-04-03T22:39:30.471Z,61.82
2023-04-03T22:41:56.775Z,62.08
2023-04-03T22:44:24.279Z,62.48
2023-04-03T22:46:52.163Z,62.74
2023-04-03T22:49:18.802Z,62.22
2023-04-03T22:51:45.123Z,62.08
2023-04-03T22:54:11.469Z,62.14
2023-04-03T22:56:37.965Z,62.07
2023-04-03T22:59:04.361Z,62.12
2023-04-03T23:01:30.804Z,62.32
2023-04-03T23:03:57.500Z,62.34
2023-04-03T23:06:23.896Z,62.36
2023-04-03T23:08:50.288Z,62.42
2023-04-03T23:11:16.589Z,62.30
2023-04-03T23:13:43.206Z,62.52
2023-04-03T23:16:09.587Z,62.49
2023-04-03T23:18:38.931Z,62.64
2023-04-03T23:21:07.195Z,62.72
2023-04-03T23:23:33.866Z,63.00
2023-04-03T23:26:01.803Z,64.61
2023-04-03T23:28:29.060Z,63.94
2023-04-03T23:31:03.254Z,60.12
2023-04-03T23:33:30.819Z,53.79
2023-04-03T23:35:58.787Z,50.80
2023-04-03T23:38:25.632Z,51.18
2023-04-03T23:40:52.089Z,52.65
2023-04-03T23:43:18.471Z,54.16
2023-04-03T23:45:45.123Z,55.22
2023-04-03T23:48:11.496Z,56.16
2023-04-03T23:50:38.264Z,57.71
2023-04-03T23:53:04.795Z,58.99
2023-04-03T23:55:31.123Z,59.67
2023-04-03T23:57:57.449Z,60.58
